Time;durP1;ratioP1;P1;durP2;ratioP2;P2;SDS_P1;SDS_P2;PMS_P1;PMS_P2;Temp;Humidity;BMP_temperature;BMP_pressure;BME280_temperature;BME280_humidity;BME280_pressure;Samples;Min_cycle;Max_cycle;Signal;HPM_P1;HPM_P2
2022/06/21 00:01:28;;;;;;;5.50;1.40;;;;;;;24.93;43.71;100139.69;5051184;28;20176;-60
2022/06/21 00:03:54;;;;;;;4.27;1.47;;;;;;;24.95;43.75;100143.81;5052068;28;20164;-60
2022/06/21 00:06:22;;;;;;;6.67;2.37;;;;;;;24.95;43.90;100149.59;5050790;28;20234;-60
2022/06/21 00:08:47;;;;;;;4.20;1.43;;;;;;;24.99;43.85;100149.53;5050733;28;20421;-60
2022/06/21 00:11:26;;;;;;;4.53;1.40;;;;;;;24.98;43.87;100142.94;5051725;28;20809;-60
2022/06/21 00:13:52;;;;;;;6.43;1.33;;;;;;;24.99;44.40;100144.56;5050395;28;20167;-60
2022/06/21 00:16:18;;;;;;;3.70;1.50;;;;;;;24.96;44.08;100156.16;5042998;28;20488;-60
2022/06/21 00:18:44;;;;;;;3.40;1.13;;;;;;;25.00;43.73;100149.13;5030159;28;20256;-60
2022/06/21 00:21:17;;;;;;;2.73;1.20;;;;;;;25.05;44.34;100148.66;5028475;28;20242;-60
2022/06/21 00:23:43;;;;;;;3.10;1.60;;;;;;;25.03;44.15;100154.03;5034699;28;20847;-60
2022/06/21 00:26:10;;;;;;;3.30;1.50;;;;;;;25.04;44.28;100149.88;5029605;28;20549;-60
2022/06/21 00:28:36;;;;;;;3.23;1.33;;;;;;;25.01;43.75;100153.63;5069927;28;20685;-60
2022/06/21 00:31:01;;;;;;;3.60;1.53;;;;;;;25.03;44.45;100154.03;5069469;28;20417;-60
2022/06/21 00:33:27;;;;;;;3.43;1.73;;;;;;;25.04;44.28;100149.88;5070985;28;20179;-60
2022/06/21 00:35:54;;;;;;;3.40;1.37;;;;;;;25.06;44.83;100153.19;5070215;28;20177;-60
2022/06/21 00:38:27;;;;;;;3.73;1.60;;;;;;;25.08;45.22;100150.66;5070042;28;20456;-61
2022/06/21 00:40:52;;;;;;;5.30;1.90;;;;;;;25.10;45.04;100158.91;5071258;28;20425;-60
2022/06/21 00:43:20;;;;;;;3.40;1.50;;;;;;;25.10;44.75;100144.47;5070163;28;20534;-60
2022/06/21 00:45:47;;;;;;;3.90;1.50;;;;;;;25.09;44.64;100137.84;5069985;28;20233;-60
2022/06/21 00:48:15;;;;;;;3.93;1.30;;;;;;;25.07;44.74;100134.59;5070113;28;20440;-60
2022/06/21 00:50:44;;;;;;;3.33;1.30;;;;;;;25.06;44.58;100132.94;5055195;28;20425;-60
2022/06/21 00:53:22;;;;;;;3.77;1.10;;;;;;;25.09;44.61;100132.06;5031877;28;20525;-60
2022/06/21 00:55:52;;;;;;;3.03;1.13;;;;;;;25.11;45.46;100134.53;5030016;28;20458;-60
2022/06/21 00:58:19;;;;;;;2.43;1.10;;;;;;;25.11;44.91;100123.81;5028661;28;20411;-60
2022/06/21 01:00:54;;;;;;;3.43;1.20;;;;;;;25.10;44.98;100110.63;5028881;28;20419;-60
2022/06/21 01:05:55;;;;;;;3.40;1.27;;;;;;;25.06;44.39;100104.06;4114290;23;20488;-72
2022/06/21 01:08:24;;;;;;;1.83;0.93;;;;;;;25.05;45.26;100096.66;4974172;28;20436;-74
2022/06/21 01:10:52;;;;;;;2.20;1.10;;;;;;;25.05;45.31;100090.03;4989075;28;20888;-72
2022/06/21 01:13:21;;;;;;;2.00;0.87;;;;;;;25.03;44.72;100086.78;4972663;28;20957;-71
2022/06/21 01:15:47;;;;;;;5.80;1.47;;;;;;;25.03;45.37;100075.22;4975212;28;20479;-71
2022/06/21 01:18:14;;;;;;;4.10;1.37;;;;;;;25.03;44.69;100073.13;4971441;28;20457;-72
2022/06/21 01:20:43;;;;;;;4.40;1.40;;;;;;;25.00;45.18;100059.56;4956138;28;20417;-71
2022/06/21 01:23:30;;;;;;;4.00;1.10;;;;;;;24.96;44.98;100060.84;4968775;28;20523;-72
2022/06/21 01:26:24;;;;;;;3.33;1.13;;;;;;;24.96;44.88;100053.00;4992269;28;20922;-72
2022/06/21 01:28:50;;;;;;;3.70;1.50;;;;;;;24.90;44.59;100048.13;4970613;28;20418;-71
2022/06/21 01:31:15;;;;;;;2.83;1.40;;;;;;;24.82;44.79;100053.16;4989464;28;20430;-71
2022/06/21 01:33:41;;;;;;;5.70;1.30;;;;;;;24.81;45.03;100057.31;4986166;28;20429;-71
2022/06/21 01:36:22;;;;;;;3.47;1.10;;;;;;;24.80;44.61;100061.44;4972223;28;20193;-71
2022/06/21 01:38:54;;;;;;;3.80;1.30;;;;;;;24.84;45.08;100067.97;4984534;28;20178;-73
2022/06/21 01:41:22;;;;;;;1.80;1.10;;;;;;;24.87;44.99;100064.25;4986374;28;20418;-72
2022/06/21 01:43:48;;;;;;;4.50;1.23;;;;;;;24.89;44.87;100053.06;4989740;28;20428;-72
2022/06/21 01:46:16;;;;;;;2.10;1.00;;;;;;;24.88;44.72;100054.31;4971275;28;20471;-71
2022/06/21 01:48:50;;;;;;;3.33;1.20;;;;;;;24.90;44.79;100059.69;4973230;28;20451;-71
2022/06/21 01:51:27;;;;;;;4.43;1.40;;;;;;;24.89;44.91;100052.28;4973052;28;20559;-72
2022/06/21 01:53:53;;;;;;;4.37;1.60;;;;;;;24.83;44.35;100054.78;4975928;28;20793;-71
2022/06/21 01:56:28;;;;;;;2.43;0.93;;;;;;;24.83;44.90;100051.91;4991187;28;20416;-71
2022/06/21 01:59:02;;;;;;;2.10;1.00;;;;;;;24.86;44.57;100048.16;4971220;28;20173;-72
2022/06/21 02:01:37;;;;;;;3.60;1.20;;;;;;;24.88;44.71;100034.09;5005476;28;20488;-73
2022/06/21 02:04:02;;;;;;;3.00;1.10;;;;;;;24.91;44.66;100044.81;4987168;28;20449;-71
2022/06/21 02:06:30;;;;;;;3.20;1.30;;;;;;;24.91;44.57;100033.25;4986952;28;20729;-71
2022/06/21 02:08:59;;;;;;;2.33;0.80;;;;;;;24.89;44.81;100027.06;4990737;28;20210;-71
2022/06/21 02:11:52;;;;;;;4.73;1.50;;;;;;;24.94;45.31;100037.34;4989189;28;20509;-72
2022/06/21 02:14:28;;;;;;;6.07;1.40;;;;;;;24.95;44.68;100042.72;4950961;29;20443;-72
2022/06/21 02:16:54;;;;;;;3.63;1.20;;;;;;;24.94;44.68;100029.47;4940883;28;20530;-71
2022/06/21 02:19:27;;;;;;;3.47;1.30;;;;;;;24.94;45.18;100040.25;4953316;28;20422;-72
2022/06/21 02:21:53;;;;;;;4.23;1.50;;;;;;;24.93;44.67;100041.50;4974172;28;20905;-71
2022/06/21 02:24:18;;;;;;;2.10;1.20;;;;;;;24.91;44.93;100041.91;4987085;28;20476;-72
2022/06/21 02:26:44;;;;;;;2.20;0.97;;;;;;;24.94;45.55;100043.13;4978519;28;20205;-71
2022/06/21 02:29:12;;;;;;;2.63;1.27;;;;;;;24.96;45.30;100043.50;4976596;28;20173;-72
2022/06/21 02:31:38;;;;;;;2.20;0.90;;;;;;;24.96;45.55;100021.22;4975767;28;20532;-72
2022/06/21 02:34:04;;;;;;;4.40;1.60;;;;;;;24.95;45.53;100027.44;4959710;28;20432;-71
2022/06/21 02:36:32;;;;;;;2.83;1.20;;;;;;;24.92;45.04;100034.88;4958849;28;20194;-71
2022/06/21 02:38:58;;;;;;;3.27;1.10;;;;;;;24.92;45.69;100023.34;4957832;28;20426;-72
2022/06/21 02:41:36;;;;;;;2.10;1.30;;;;;;;24.93;45.20;100015.50;4958018;28;20430;-72
2022/06/21 02:44:08;;;;;;;5.00;1.20;;;;;;;24.93;45.35;100015.50;4925868;29;20430;-71
2022/06/21 02:46:36;;;;;;;2.60;1.27;;;;;;;24.92;45.30;100006.00;4955211;28;20482;-71
2022/06/21 02:49:31;;;;;;;2.40;1.47;;;;;;;24.91;45.24;100004.38;4936919;29;20431;-72
2022/06/21 02:51:59;;;;;;;3.67;1.20;;;;;;;24.91;45.20;100010.16;4954729;28;20449;-71
2022/06/21 02:54:26;;;;;;;3.53;1.30;;;;;;;24.90;45.72;100004.81;4953399;28;20936;-71
2022/06/21 02:57:09;;;;;;;2.40;1.13;;;;;;;24.90;45.48;100002.75;4973637;28;20421;-71
2022/06/21 02:59:36;;;;;;;2.90;1.33;;;;;;;24.91;45.05;100003.53;4956920;28;20417;-71
2022/06/21 03:02:07;;;;;;;2.40;1.23;;;;;;;24.90;45.48;100014.28;4957636;28;20422;-71
2022/06/21 03:04:38;;;;;;;3.60;1.13;;;;;;;24.90;45.24;100022.97;4957384;28;20485;-71
2022/06/21 03:07:04;;;;;;;2.20;1.20;;;;;;;24.92;45.38;100003.13;4956524;28;20539;-71
2022/06/21 03:09:30;;;;;;;4.30;1.00;;;;;;;24.93;45.82;99998.97;4954588;28;20433;-71
2022/06/21 03:11:58;;;;;;;3.53;1.10;;;;;;;24.93;45.61;99984.53;4971337;28;20190;-71
2022/06/21 03:14:24;;;;;;;2.40;1.03;;;;;;;24.91;45.93;99981.28;4972671;28;20206;-73
2022/06/21 03:16:50;;;;;;;4.87;1.40;;;;;;;24.89;45.38;99972.19;4952298;28;20837;-72
2022/06/21 03:19:38;;;;;;;2.33;1.03;;;;;;;24.87;45.03;99960.28;4968947;28;20553;-72
2022/06/21 03:22:25;;;;;;;2.83;1.10;;;;;;;24.87;45.27;99954.50;4955612;28;20517;-72
2022/06/21 03:24:52;;;;;;;3.73;1.30;;;;;;;24.84;45.18;99955.34;4972770;28;20421;-72
2022/06/21 03:27:24;;;;;;;4.60;1.57;;;;;;;24.84;45.42;99964.00;4966137;28;20967;-73
2022/06/21 03:29:49;;;;;;;3.90;1.20;;;;;;;24.86;45.88;99954.91;4992353;28;20409;-72
2022/06/21 03:32:14;;;;;;;2.73;1.20;;;;;;;24.87;45.71;99947.88;4991067;28;20421;-72
2022/06/21 03:34:40;;;;;;;2.70;1.50;;;;;;;24.84;45.27;99940.91;4993015;28;20174;-71
2022/06/21 03:37:05;;;;;;;1.73;0.97;;;;;;;24.83;45.59;99944.25;4977819;28;20182;-72
2022/06/21 03:42:17;;;;;;;3.73;1.30;;;;;;;24.74;45.32;99959.19;4987915;28;20616;-71
2022/06/21 03:44:45;;;;;;;4.93;1.90;;;;;;;24.77;45.74;99955.44;4941241;28;20437;-72
2022/06/21 03:47:28;;;;;;;2.80;1.10;;;;;;;24.74;46.00;99961.28;4958452;28;20544;-73
2022/06/21 03:50:14;;;;;;;4.90;1.03;;;;;;;24.73;45.60;99963.34;4958299;28;20433;-72
2022/06/21 03:52:44;;;;;;;3.33;1.30;;;;;;;24.76;45.39;99953.81;4958521;28;20458;-71
2022/06/21 03:55:19;;;;;;;2.30;1.17;;;;;;;24.74;45.21;99947.63;4972771;28;20521;-71
2022/06/21 03:57:58;;;;;;;3.70;1.20;;;;;;;24.77;45.24;99940.19;4973742;28;20496;-74
2022/06/21 04:00:23;;;;;;;2.80;1.13;;;;;;;24.77;45.32;99949.66;4957785;28;20584;-72
2022/06/21 04:02:58;;;;;;;2.70;1.40;;;;;;;24.76;45.47;99955.88;4973656;28;20829;-73
2022/06/21 04:05:29;;;;;;;2.50;1.10;;;;;;;24.76;45.35;99956.72;4956656;28;20322;-71
2022/06/21 04:08:00;;;;;;;3.10;1.50;;;;;;;24.76;45.36;99948.03;4955468;28;20465;-72
2022/06/21 04:10:36;;;;;;;5.07;1.40;;;;;;;24.76;45.90;99950.09;4970905;28;21056;-72
2022/06/21 04:13:23;;;;;;;2.77;1.10;;;;;;;24.67;45.71;99947.75;4954821;28;20524;-71
2022/06/21 04:16:12;;;;;;;5.47;1.30;;;;;;;24.64;45.98;99936.25;4971469;28;20445;-71
2022/06/21 04:19:00;;;;;;;3.40;1.00;;;;;;;24.65;45.65;99949.41;4973445;28;20461;-72
2022/06/21 04:21:44;;;;;;;2.87;1.40;;;;;;;24.63;46.03;99937.50;4955019;28;20465;-72
2022/06/21 04:24:34;;;;;;;5.00;1.30;;;;;;;24.64;45.78;99939.13;4948533;28;20542;-71
2022/06/21 04:27:16;;;;;;;1.77;0.87;;;;;;;24.69;45.95;99950.19;4964686;28;20533;-72
2022/06/21 04:29:52;;;;;;;2.60;1.30;;;;;;;24.74;45.52;99959.19;4979200;28;20437;-72
2022/06/21 04:32:30;;;;;;;3.17;1.50;;;;;;;24.75;45.87;99966.63;4971310;28;20936;-72
2022/06/21 04:35:33;;;;;;;3.40;1.00;;;;;;;24.75;46.19;99963.75;4970372;28;20793;-72
2022/06/21 04:38:06;;;;;;;3.87;1.53;;;;;;;24.79;45.94;99963.69;4969549;28;20437;-73
2022/06/21 04:40:47;;;;;;;2.40;1.10;;;;;;;24.78;46.19;99957.06;4970986;28;20432;-71
2022/06/21 04:43:20;;;;;;;2.17;0.90;;;;;;;24.80;45.92;99956.66;4969129;28;20437;-71
2022/06/21 04:45:48;;;;;;;3.10;1.40;;;;;;;24.79;46.02;99961.59;4937917;28;20517;-72
2022/06/21 04:48:36;;;;;;;4.73;1.20;;;;;;;24.77;46.16;99958.34;4970284;28;20489;-73
2022/06/21 04:51:16;;;;;;;2.70;1.13;;;;;;;24.77;46.21;99943.91;4970253;28;21103;-72
2022/06/21 04:54:05;;;;;;;2.10;1.30;;;;;;;24.77;45.76;99957.50;4955508;28;20504;-72
2022/06/21 04:56:58;;;;;;;5.43;1.40;;;;;;;24.70;45.67;99955.56;4955879;28;20429;-72
2022/06/21 04:59:38;;;;;;;3.20;1.40;;;;;;;24.76;46.18;99967.44;4969779;28;20480;-72
2022/06/21 05:02:04;;;;;;;3.00;1.43;;;;;;;24.79;46.87;99955.81;4973367;28;20445;-72
2022/06/21 05:04:37;;;;;;;5.27;1.63;;;;;;;24.78;46.11;99965.75;4954526;28;20485;-71
2022/06/21 05:07:07;;;;;;;2.17;1.10;;;;;;;24.80;46.19;99971.94;4954109;28;20457;-71
2022/06/21 05:09:32;;;;;;;2.57;1.30;;;;;;;24.78;46.38;99977.28;4985638;28;20425;-72
2022/06/21 05:12:09;;;;;;;1.93;1.10;;;;;;;24.83;46.57;99978.91;4954337;28;20434;-72
2022/06/21 05:14:36;;;;;;;2.63;1.20;;;;;;;24.86;46.37;99978.84;4969177;28;20174;-71
2022/06/21 05:17:04;;;;;;;2.27;1.33;;;;;;;24.84;46.14;99987.13;4954143;28;20424;-72
2022/06/21 05:19:33;;;;;;;2.17;1.10;;;;;;;24.81;46.33;99993.78;4969411;28;20422;-71
2022/06/21 05:22:09;;;;;;;3.87;1.27;;;;;;;24.81;45.57;99988.00;4954196;28;20426;-71
2022/06/21 05:24:34;;;;;;;2.47;1.17;;;;;;;24.81;46.44;99993.78;4970565;28;20405;-72
2022/06/21 05:27:18;;;;;;;2.87;1.20;;;;;;;24.77;45.92;99986.38;4976798;28;20887;-71
2022/06/21 05:30:17;;;;;;;4.87;2.07;;;;;;;24.76;46.12;99991.34;4974282;28;20177;-74
2022/06/21 05:32:50;;;;;;;3.47;1.20;;;;;;;24.79;46.09;99981.81;4975096;28;20420;-71
2022/06/21 05:35:23;;;;;;;2.80;0.97;;;;;;;24.79;46.53;99989.69;4972415;28;20516;-72
2022/06/21 05:38:04;;;;;;;2.60;1.07;;;;;;;24.77;45.90;99992.16;4967875;28;20485;-72
2022/06/21 05:40:47;;;;;;;3.53;1.23;;;;;;;24.75;46.01;99988.91;4950837;28;20509;-71
2022/06/21 05:43:15;;;;;;;6.00;1.30;;;;;;;24.73;45.93;100005.84;4945763;28;20436;-71
2022/06/21 05:45:40;;;;;;;3.20;1.33;;;;;;;24.70;46.07;100010.41;4952311;28;20531;-72
2022/06/21 05:48:13;;;;;;;2.43;1.07;;;;;;;24.69;46.25;100007.94;4951764;28;20481;-72
2022/06/21 05:50:38;;;;;;;3.20;1.17;;;;;;;24.69;45.95;100005.06;4952799;28;20182;-72
2022/06/21 05:53:13;;;;;;;4.03;1.60;;;;;;;24.68;46.37;100003.44;4954335;28;20418;-72
2022/06/21 05:55:41;;;;;;;3.10;1.23;;;;;;;24.65;46.22;99996.44;4954426;28;20190;-72
2022/06/21 05:58:14;;;;;;;4.13;1.13;;;;;;;24.68;46.02;100003.44;4970120;28;20513;-72
2022/06/21 06:00:44;;;;;;;2.60;1.20;;;;;;;24.68;45.80;100001.34;4941648;28;20441;-71
2022/06/21 06:03:19;;;;;;;7.63;1.40;;;;;;;24.68;46.03;100007.13;4957428;28;20480;-72
2022/06/21 06:05:45;;;;;;;4.00;1.27;;;;;;;24.73;46.86;100005.84;4958594;28;20567;-72
2022/06/21 06:08:12;;;;;;;5.60;1.20;;;;;;;24.74;46.25;99998.81;4943874;28;20457;-72
2022/06/21 06:10:39;;;;;;;2.80;1.20;;;;;;;24.77;46.22;100003.72;4973493;28;20598;-72
2022/06/21 06:13:07;;;;;;;2.93;1.33;;;;;;;24.79;45.99;100002.03;4973129;28;20913;-72
2022/06/21 06:15:46;;;;;;;3.03;1.30;;;;;;;24.79;46.54;100001.22;4941590;28;20425;-72
2022/06/21 06:18:18;;;;;;;5.40;2.40;;;;;;;24.64;45.82;99988.22;4956909;28;20424;-72
2022/06/21 06:21:13;;;;;;;4.20;1.20;;;;;;;24.60;45.90;99996.91;4957311;28;20429;-73
2022/06/21 06:23:40;;;;;;;3.67;1.50;;;;;;;24.61;46.32;99995.66;4970877;28;20460;-72
2022/06/21 06:26:12;;;;;;;3.27;1.27;;;;;;;24.59;46.62;99995.25;4957181;28;20462;-72
2022/06/21 06:28:47;;;;;;;5.13;1.70;;;;;;;24.63;46.49;99998.13;4958390;28;20428;-72
2022/06/21 06:31:46;;;;;;;3.53;1.30;;;;;;;24.62;46.11;100005.13;4972915;28;20429;-72
2022/06/21 06:34:14;;;;;;;3.83;1.50;;;;;;;24.61;46.50;100001.44;4974596;28;20541;-71
2022/06/21 06:36:46;;;;;;;4.83;1.20;;;;;;;24.57;46.45;100005.56;4973358;28;20425;-72
2022/06/21 06:39:25;;;;;;;4.80;1.77;;;;;;;24.58;46.45;100007.22;4972580;28;20433;-73
2022/06/21 06:42:17;;;;;;;5.60;1.40;;;;;;;24.59;46.39;100009.69;4974755;28;20424;-72
2022/06/21 06:44:50;;;;;;;5.43;1.47;;;;;;;24.60;46.30;100011.34;4971125;28;20889;-71
2022/06/21 06:47:28;;;;;;;4.30;1.20;;;;;;;24.57;46.32;100000.63;4955972;28;20469;-72
2022/06/21 06:49:58;;;;;;;3.37;1.30;;;;;;;24.57;46.43;99989.06;4957235;28;20428;-71
2022/06/21 06:52:31;;;;;;;2.93;1.30;;;;;;;24.57;46.29;99968.88;4974048;28;20426;-72
2022/06/21 06:55:20;;;;;;;3.10;1.30;;;;;;;24.30;46.97;99941.97;4972767;28;20775;-72
2022/06/21 06:57:53;;;;;;;5.90;1.57;;;;;;;24.43;46.99;99913.38;4976294;28;20884;-73
2022/06/21 07:00:24;;;;;;;2.47;1.20;;;;;;;24.46;46.82;99890.25;4960002;28;20493;-72
2022/06/21 07:02:56;;;;;;;5.40;1.43;;;;;;;24.32;46.64;99870.22;4959779;28;20434;-72
2022/06/21 07:05:29;;;;;;;3.93;1.50;;;;;;;24.37;47.02;99858.19;4956038;28;20556;-71
2022/06/21 07:07:58;;;;;;;4.73;1.70;;;;;;;24.40;47.21;99824.78;4974019;28;21027;-71
2022/06/21 07:10:25;;;;;;;4.37;1.57;;;;;;;24.29;47.20;99850.88;4955156;28;20477;-71
2022/06/21 07:12:51;;;;;;;6.20;1.83;;;;;;;24.43;47.00;99936.47;4956192;28;20466;-72
2022/06/21 07:15:17;;;;;;;3.30;2.07;;;;;;;24.50;46.67;99989.16;4945511;28;20502;-72
2022/06/21 07:17:45;;;;;;;6.43;1.50;;;;;;;24.47;46.70;100018.88;4968992;28;20418;-72
2022/06/21 07:20:21;;;;;;;5.40;1.63;;;;;;;24.50;46.88;100014.31;4967832;28;20183;-72
2022/06/21 07:22:46;;;;;;;3.07;1.37;;;;;;;24.59;46.76;100009.69;4953017;28;20505;-71
2022/06/21 07:25:14;;;;;;;3.70;1.70;;;;;;;24.59;46.77;100003.91;4951409;28;20466;-72
2022/06/21 07:27:41;;;;;;;4.57;1.83;;;;;;;24.53;46.66;99994.06;4983279;28;20596;-71
2022/06/21 07:30:09;;;;;;;3.50;2.27;;;;;;;24.53;46.83;99973.06;4972736;28;20437;-73
2022/06/21 07:32:37;;;;;;;3.27;1.60;;;;;;;24.50;46.88;99959.47;4973436;28;20909;-71
2022/06/21 07:35:03;;;;;;;5.90;1.60;;;;;;;24.46;47.07;99950.03;4974209;28;20528;-71
2022/06/21 07:37:34;;;;;;;6.60;1.80;;;;;;;24.47;47.10;99935.16;4990640;28;20397;-72
2022/06/21 07:40:09;;;;;;;5.13;1.63;;;;;;;24.48;47.02;99970.63;4964470;28;20197;-71
2022/06/21 07:42:57;;;;;;;2.73;1.47;;;;;;;24.47;47.39;100004.44;4974029;28;20418;-72
2022/06/21 07:45:56;;;;;;;3.13;1.40;;;;;;;24.53;47.33;99973.06;4971993;28;20433;-72
2022/06/21 07:48:54;;;;;;;3.97;1.93;;;;;;;24.54;46.91;99977.56;4960392;28;20835;-72
2022/06/21 07:51:28;;;;;;;3.50;2.00;;;;;;;24.51;47.73;99972.66;4942247;28;20433;-72
2022/06/21 07:54:08;;;;;;;5.50;1.50;;;;;;;24.53;47.37;99968.06;4940671;28;20584;-72
2022/06/21 07:56:57;;;;;;;5.53;1.60;;;;;;;24.49;47.48;99955.75;4956116;28;20409;-72
2022/06/21 07:59:22;;;;;;;4.80;1.60;;;;;;;24.53;47.35;99947.88;4954493;28;20421;-72
2022/06/21 08:07:45;;;;;;;7.47;1.80;;;;;;;24.29;48.05;99933.75;4954299;28;20568;-72
2022/06/21 08:10:20;;;;;;;6.53;2.00;;;;;;;24.33;47.70;99941.09;4971763;28;20501;-74
2022/06/21 08:12:47;;;;;;;3.60;1.67;;;;;;;24.32;48.08;99947.28;4970752;28;20185;-72
2022/06/21 08:15:13;;;;;;;3.60;1.20;;;;;;;24.44;47.79;99944.69;4968776;28;20829;-71
2022/06/21 08:17:45;;;;;;;5.63;1.50;;;;;;;24.47;47.42;99945.88;4970218;28;20410;-72
2022/06/21 08:20:17;;;;;;;10.20;2.30;;;;;;;24.39;47.53;99945.16;4982764;28;20201;-71
2022/06/21 08:22:47;;;;;;;2.60;1.30;;;;;;;24.32;47.59;99936.56;4989935;28;20428;-72
2022/06/21 08:25:26;;;;;;;8.33;1.60;;;;;;;24.27;47.97;99934.16;4957201;28;20426;-72
2022/06/21 08:27:58;;;;;;;4.20;1.73;;;;;;;24.30;47.83;99927.53;4985253;28;20558;-71
2022/06/21 08:30:42;;;;;;;5.10;1.50;;;;;;;24.24;47.99;99929.25;4972080;28;20437;-71
2022/06/21 08:33:09;;;;;;;4.97;2.00;;;;;;;24.43;48.03;99934.38;4993245;28;20421;-72
2022/06/21 08:35:40;;;;;;;6.73;1.70;;;;;;;24.50;47.36;99933.50;4989748;28;20421;-72
2022/06/21 08:38:09;;;;;;;3.17;1.50;;;;;;;24.54;47.50;99943.72;4989909;28;20432;-71
2022/06/21 08:40:56;;;;;;;3.70;1.70;;;;;;;24.54;47.72;99931.38;4971420;28;20429;-72
2022/06/21 08:43:40;;;;;;;7.73;2.17;;;;;;;24.57;47.60;99936.28;4989822;28;20452;-72
2022/06/21 08:46:21;;;;;;;3.90;1.90;;;;;;;24.44;48.03;99938.91;4969647;28;20414;-71
2022/06/21 08:49:07;;;;;;;4.40;1.53;;;;;;;24.46;48.53;99932.69;4970457;28;20453;-71
2022/06/21 08:51:45;;;;;;;3.70;1.77;;;;;;;24.40;48.21;99925.78;4971528;28;20983;-72
2022/06/21 08:54:26;;;;;;;4.43;1.67;;;;;;;24.47;47.66;99917.84;4954393;28;20471;-72
2022/06/21 08:57:14;;;;;;;4.30;1.60;;;;;;;24.45;48.56;99916.66;4971753;28;20792;-73
2022/06/21 09:00:05;;;;;;;3.70;1.73;;;;;;;24.51;48.20;99915.75;4968661;28;20955;-71
2022/06/21 09:02:43;;;;;;;4.87;1.90;;;;;;;24.51;48.39;99920.69;4970887;28;20497;-71
2022/06/21 09:05:26;;;;;;;4.67;1.80;;;;;;;24.58;48.11;99912.78;4970311;28;20469;-71
2022/06/21 09:07:52;;;;;;;3.77;1.90;;;;;;;24.52;48.41;99923.16;4985111;28;20476;-71
2022/06/21 09:10:35;;;;;;;5.10;2.07;;;;;;;24.61;47.90;99922.66;4969737;28;20414;-72
2022/06/21 09:13:26;;;;;;;3.33;1.87;;;;;;;24.64;48.19;99921.81;4984560;28;20186;-73
2022/06/21 09:16:14;;;;;;;3.83;1.60;;;;;;;24.54;48.72;99920.63;4967953;28;20422;-72
2022/06/21 09:18:47;;;;;;;3.50;2.00;;;;;;;24.54;48.74;99919.84;4952495;28;20457;-73
2022/06/21 09:21:21;;;;;;;10.47;2.00;;;;;;;24.55;48.79;99925.19;4952660;28;20421;-71
2022/06/21 09:24:02;;;;;;;7.27;2.10;;;;;;;24.38;49.04;99926.19;4968730;28;20414;-72
2022/06/21 09:26:59;;;;;;;5.27;1.83;;;;;;;24.50;48.97;99928.53;4972335;28;20515;-73
2022/06/21 09:29:26;;;;;;;10.37;2.30;;;;;;;24.62;48.90;99927.16;4987809;28;20420;-72
2022/06/21 09:32:05;;;;;;;4.80;2.07;;;;;;;24.53;49.10;99919.00;4990698;28;20711;-72
2022/06/21 09:34:46;;;;;;;7.23;2.43;;;;;;;24.54;49.09;99931.38;4991482;28;20457;-71
2022/06/21 09:37:22;;;;;;;5.73;2.30;;;;;;;24.63;48.76;99915.19;4978629;28;20489;-73
2022/06/21 09:40:12;;;;;;;5.20;2.50;;;;;;;24.64;48.82;99918.91;4993634;28;20826;-71
2022/06/21 09:42:42;;;;;;;3.53;2.10;;;;;;;24.70;48.45;99914.28;4984334;28;20460;-72
2022/06/21 09:45:22;;;;;;;5.00;1.90;;;;;;;24.67;49.01;99906.50;4971665;28;21245;-72
2022/06/21 09:48:06;;;;;;;3.77;1.60;;;;;;;24.69;48.98;99899.03;4955072;28;20478;-72
2022/06/21 09:51:07;;;;;;;6.03;2.40;;;;;;;24.68;49.23;99897.41;4972133;28;21039;-72
2022/06/21 09:53:40;;;;;;;6.83;2.00;;;;;;;24.74;49.07;99891.97;4956371;28;20429;-72
2022/06/21 09:56:11;;;;;;;7.00;2.63;;;;;;;24.42;49.47;99891.53;4971963;28;20417;-72
2022/06/21 09:58:39;;;;;;;5.00;2.00;;;;;;;24.61;49.51;99891.72;4973036;28;20465;-71
2022/06/21 10:01:14;;;;;;;4.10;2.13;;;;;;;24.61;49.70;99885.97;4973679;28;20506;-72
2022/06/21 10:04:00;;;;;;;5.27;2.20;;;;;;;24.70;49.75;99882.53;4957536;28;20472;-72
2022/06/21 10:06:48;;;;;;;6.30;2.57;;;;;;;24.60;50.00;99883.50;4974638;28;20569;-72
2022/06/21 10:09:38;;;;;;;5.00;2.47;;;;;;;24.66;49.67;99881.75;4972749;28;20771;-72
2022/06/21 10:12:37;;;;;;;9.60;2.50;;;;;;;24.77;49.65;99880.38;4987788;28;20430;-72
2022/06/21 10:15:47;;;;;;;5.40;2.73;;;;;;;24.85;49.64;99861.69;4974722;28;20781;-73
2022/06/21 10:19:07;;;;;;;6.33;2.43;;;;;;;24.79;49.88;99871.28;4971692;28;20886;-71
2022/06/21 10:21:39;;;;;;;11.20;3.17;;;;;;;24.71;50.25;99869.72;4970604;28;20936;-73
2022/06/21 10:24:34;;;;;;;5.60;2.77;;;;;;;24.73;50.45;99862.28;4973974;28;20884;-71
2022/06/21 10:27:29;;;;;;;7.53;2.70;;;;;;;24.78;50.42;99873.34;4973536;28;20457;-72
2022/06/21 10:30:13;;;;;;;4.80;2.87;;;;;;;24.74;50.71;99875.44;4971436;28;20428;-71
2022/06/21 10:32:44;;;;;;;9.07;3.10;;;;;;;24.77;50.39;99886.16;4974928;28;20493;-72
2022/06/21 10:35:17;;;;;;;7.53;2.53;;;;;;;24.82;50.44;99885.66;4974791;28;20425;-72
2022/06/21 10:37:53;;;;;;;6.70;2.90;;;;;;;24.85;50.76;99890.59;4974229;28;20410;-72
2022/06/21 10:40:54;;;;;;;5.23;3.03;;;;;;;24.81;50.98;99889.81;4973504;28;20418;-71
2022/06/21 10:43:40;;;;;;;9.90;4.00;;;;;;;24.89;51.06;99874.00;4953579;28;20425;-73
2022/06/21 10:46:30;;;;;;;7.60;3.37;;;;;;;24.96;50.70;99873.09;4968842;28;20425;-73
2022/06/21 10:49:18;;;;;;;5.00;2.90;;;;;;;24.98;50.52;99877.19;4955715;28;20542;-72
2022/06/21 10:51:52;;;;;;;6.00;3.00;;;;;;;25.06;51.52;99875.81;4952913;28;20430;-73
2022/06/21 10:54:31;;;;;;;4.90;3.00;;;;;;;25.05;51.28;99858.91;4969444;28;20930;-72
2022/06/21 10:57:29;;;;;;;5.60;3.03;;;;;;;25.00;51.07;99857.34;4969639;28;20403;-71
2022/06/21 11:03:06;;;;;;;7.53;3.33;;;;;;;24.98;52.42;99830.97;4965322;28;20953;-73
2022/06/21 11:05:34;;;;;;;9.83;4.13;;;;;;;25.04;51.81;99825.53;4954011;28;20475;-72
2022/06/21 11:08:26;;;;;;;11.97;3.53;;;;;;;25.05;51.78;99824.25;4972718;28;20465;-72
2022/06/21 11:11:03;;;;;;;4.63;3.00;;;;;;;25.09;52.17;99816.34;4970694;28;20430;-72
2022/06/21 11:13:40;;;;;;;6.23;3.60;;;;;;;25.04;52.89;99800.31;4956175;28;20438;-72
2022/06/21 11:16:21;;;;;;;6.60;3.80;;;;;;;25.07;52.41;99793.69;4956478;28;20422;-72
2022/06/21 11:18:55;;;;;;;6.63;3.53;;;;;;;25.07;53.06;99793.69;4972061;28;20428;-72
2022/06/21 11:21:35;;;;;;;5.27;3.03;;;;;;;25.11;52.74;99796.50;4972165;28;20955;-72
2022/06/21 11:24:40;;;;;;;7.30;3.33;;;;;;;25.15;52.10;99806.75;4972251;28;20414;-72
2022/06/21 11:27:28;;;;;;;7.10;3.67;;;;;;;25.20;52.21;99809.16;4980117;28;20459;-72
2022/06/21 11:30:09;;;;;;;6.00;3.40;;;;;;;25.21;52.36;99813.66;4990358;28;20435;-74
2022/06/21 11:32:40;;;;;;;7.50;3.40;;;;;;;25.27;53.19;99808.22;4991084;28;20433;-73
2022/06/21 11:35:33;;;;;;;8.00;3.60;;;;;;;25.29;52.92;99799.94;4991174;28;20786;-73
2022/06/21 11:38:21;;;;;;;5.10;3.90;;;;;;;25.29;52.74;99786.31;4992310;28;20405;-72
2022/06/21 11:41:02;;;;;;;4.70;3.57;;;;;;;25.34;52.54;99797.34;4953917;28;20505;-72
2022/06/21 11:43:51;;;;;;;8.53;3.97;;;;;;;25.35;53.01;99804.81;4941103;29;20921;-72
2022/06/21 11:46:25;;;;;;;6.40;4.10;;;;;;;25.34;52.85;99802.34;4968109;28;20866;-71
2022/06/21 11:49:12;;;;;;;10.40;4.40;;;;;;;25.36;52.87;99779.59;4952822;28;20516;-72
2022/06/21 11:52:13;;;;;;;7.63;4.60;;;;;;;25.41;53.24;99773.31;4953610;29;20403;-73
2022/06/21 11:54:44;;;;;;;5.73;3.57;;;;;;;25.41;53.15;99756.78;4952557;29;20506;-73
2022/06/21 11:57:34;;;;;;;5.60;4.10;;;;;;;25.44;52.87;99750.09;4951759;28;20422;-71
2022/06/21 12:00:07;;;;;;;6.00;3.47;;;;;;;25.47;53.44;99749.22;4966004;28;20792;-72
2022/06/21 12:02:49;;;;;;;6.13;4.50;;;;;;;25.50;53.08;99733.06;4965150;28;20487;-72
2022/06/21 12:05:36;;;;;;;6.43;3.70;;;;;;;25.52;53.21;99727.66;4972625;28;20468;-72
2022/06/21 12:08:20;;;;;;;11.10;4.30;;;;;;;25.55;52.92;99716.06;4970816;28;20819;-72
2022/06/21 12:10:59;;;;;;;7.73;4.83;;;;;;;25.51;52.97;99700.00;4989361;28;20823;-72
2022/06/21 12:13:45;;;;;;;11.37;4.33;;;;;;;25.50;53.30;99684.75;4959523;28;20489;-71
2022/06/21 12:16:32;;;;;;;5.80;4.30;;;;;;;25.52;53.23;99684.28;4974241;28;20851;-72
2022/06/21 12:19:01;;;;;;;10.10;4.43;;;;;;;25.59;54.12;99687.84;4970466;28;20446;-72
2022/06/21 12:21:29;;;;;;;8.30;4.90;;;;;;;25.64;53.83;99672.09;4954776;28;20473;-71
2022/06/21 12:24:10;;;;;;;7.70;4.70;;;;;;;25.63;53.76;99665.47;4971071;28;20917;-72